Jurh, China
Current Conditions -  °F | °C
As of 10:00 PM on Thursday 18 Dec 2014 (Local Time) from ZBHH Reporting Station
Clear Clear  
Wind Chill: 13°   Ceiling: Unl
Heat Index: 23°   Visibility: 6mi
Dew Point:   Wind: 9mph
Humidity: 36%   Direction: 290°WNW
Pressure: 30.15"   Gusts: NA
Location:  42.4°N, 112.9°E
Report Text: ZBHH 181400Z 29004MPS CAVOK M05/M18 Q1021 NOSIG
Loading
Personal Weather Stations






























Interactive Weather Map New forecast layout! Learn more

10-Day Weather Forecast

Advertisements
Track Severe Weather on mobile